sensor_id;sensor_type;location;lat;lon;timestamp;pressure;altitude;pressure_sealevel;temperature;humidity
68859;BME280;55864;49.238;8.092;2023-04-28T00:00:00;99215.25;;;13.68;62.91
68859;BME280;55864;49.238;8.092;2023-04-28T00:02:00;99221.53;;;13.67;62.65
68859;BME280;55864;49.238;8.092;2023-04-28T00:04:01;99213.78;;;13.66;63.32
68859;BME280;55864;49.238;8.092;2023-04-28T00:06:01;99214.94;;;13.63;63.76
68859;BME280;55864;49.238;8.092;2023-04-28T00:08:02;99212.47;;;13.62;64.35
68859;BME280;55864;49.238;8.092;2023-04-28T00:10:03;99206.38;;;13.61;65.84
68859;BME280;55864;49.238;8.092;2023-04-28T00:12:04;99208.34;;;13.59;65.72
68859;BME280;55864;49.238;8.092;2023-04-28T00:14:05;99212.16;;;13.57;65.77
68859;BME280;55864;49.238;8.092;2023-04-28T00:16:07;99211.66;;;13.53;66.40
68859;BME280;55864;49.238;8.092;2023-04-28T00:18:08;99209.34;;;13.50;66.90
68859;BME280;55864;49.238;8.092;2023-04-28T00:20:09;99203.41;;;13.48;67.55
68859;BME280;55864;49.238;8.092;2023-04-28T00:22:10;99188.59;;;13.47;67.76
68859;BME280;55864;49.238;8.092;2023-04-28T00:24:11;99179.19;;;13.45;67.58
68859;BME280;55864;49.238;8.092;2023-04-28T00:26:11;99168.81;;;13.43;68.25
68859;BME280;55864;49.238;8.092;2023-04-28T00:28:13;99161.69;;;13.44;67.99
68859;BME280;55864;49.238;8.092;2023-04-28T00:30:13;99165.34;;;13.43;67.84
68859;BME280;55864;49.238;8.092;2023-04-28T00:32:15;99164.50;;;13.42;67.94
68859;BME280;55864;49.238;8.092;2023-04-28T00:34:16;99170.59;;;13.43;67.60
68859;BME280;55864;49.238;8.092;2023-04-28T00:36:16;99161.19;;;13.40;67.96
68859;BME280;55864;49.238;8.092;2023-04-28T00:38:17;99147.53;;;13.37;68.48
68859;BME280;55864;49.238;8.092;2023-04-28T00:40:17;99149.69;;;13.33;69.86
68859;BME280;55864;49.238;8.092;2023-04-28T00:42:18;99152.97;;;13.35;69.91
68859;BME280;55864;49.238;8.092;2023-04-28T00:44:18;99147.03;;;13.33;69.60
68859;BME280;55864;49.238;8.092;2023-04-28T00:46:21;99145.56;;;13.31;69.81
68859;BME280;55864;49.238;8.092;2023-04-28T00:48:23;99144.75;;;13.30;69.88
68859;BME280;55864;49.238;8.092;2023-04-28T00:50:24;99150.81;;;13.31;69.63
68859;BME280;55864;49.238;8.092;2023-04-28T00:52:25;99147.38;;;13.30;69.55
68859;BME280;55864;49.238;8.092;2023-04-28T00:54:26;99146.38;;;13.31;70.44
68859;BME280;55864;49.238;8.092;2023-04-28T00:56:27;99143.09;;;13.29;70.68
68859;BME280;55864;49.238;8.092;2023-04-28T00:58:29;99141.63;;;13.27;70.68
68859;BME280;55864;49.238;8.092;2023-04-28T01:00:29;99136.50;;;13.25;70.62
68859;BME280;55864;49.238;8.092;2023-04-28T01:02:30;99138.16;;;13.26;70.58
68859;BME280;55864;49.238;8.092;2023-04-28T01:04:32;99140.13;;;13.24;69.67
68859;BME280;55864;49.238;8.092;2023-04-28T01:06:34;99137.50;;;13.24;69.95
68859;BME280;55864;49.238;8.092;2023-04-28T01:08:37;99144.25;;;13.27;70.66
68859;BME280;55864;49.238;8.092;2023-04-28T01:10:42;99135.84;;;13.23;69.86
68859;BME280;55864;49.238;8.092;2023-04-28T01:12:47;99134.38;;;13.20;69.94
68859;BME280;55864;49.238;8.092;2023-04-28T01:14:48;99124.00;;;13.19;69.73
68859;BME280;55864;49.238;8.092;2023-04-28T01:16:49;99122.34;;;13.18;70.53
68859;BME280;55864;49.238;8.092;2023-04-28T01:18:50;99128.44;;;13.18;70.74
68859;BME280;55864;49.238;8.092;2023-04-28T01:20:51;99119.69;;;13.18;70.76
68859;BME280;55864;49.238;8.092;2023-04-28T01:22:52;99125.97;;;13.17;70.43
68859;BME280;55864;49.238;8.092;2023-04-28T01:24:54;99123.34;;;13.17;70.74
68859;BME280;55864;49.238;8.092;2023-04-28T01:26:56;99131.38;;;13.15;70.95
68859;BME280;55864;49.238;8.092;2023-04-28T01:28:57;99130.59;;;13.15;70.52
68859;BME280;55864;49.238;8.092;2023-04-28T01:30:57;99128.09;;;13.13;71.15
68859;BME280;55864;49.238;8.092;2023-04-28T01:32:58;99125.63;;;13.12;71.73
68859;BME280;55864;49.238;8.092;2023-04-28T01:34:59;99129.28;;;13.11;70.89
68859;BME280;55864;49.238;8.092;2023-04-28T01:36:59;99130.91;;;13.12;71.13
68859;BME280;55864;49.238;8.092;2023-04-28T01:39:00;99136.19;;;13.12;70.92
68859;BME280;55864;49.238;8.092;2023-04-28T01:41:02;99141.44;;;13.12;71.52
68859;BME280;55864;49.238;8.092;2023-04-28T01:43:03;99134.06;;;13.07;71.04
68859;BME280;55864;49.238;8.092;2023-04-28T01:45:04;99129.59;;;13.08;71.21
68859;BME280;55864;49.238;8.092;2023-04-28T01:47:05;99125.97;;;13.09;71.52
68859;BME280;55864;49.238;8.092;2023-04-28T01:49:08;99125.31;;;13.07;71.89
68859;BME280;55864;49.238;8.092;2023-04-28T01:51:09;99128.25;;;13.04;72.58
68859;BME280;55864;49.238;8.092;2023-04-28T01:53:12;99135.50;;;13.02;72.96
68859;BME280;55864;49.238;8.092;2023-04-28T01:55:13;99129.94;;;13.05;73.45
68859;BME280;55864;49.238;8.092;2023-04-28T01:57:15;99130.09;;;13.03;73.24
68859;BME280;55864;49.238;8.092;2023-04-28T01:59:16;99127.59;;;12.94;73.77
68859;BME280;55864;49.238;8.092;2023-04-28T02:01:16;99119.66;;;12.78;73.24
68859;BME280;55864;49.238;8.092;2023-04-28T02:03:18;99123.94;;;12.63;73.94
68859;BME280;55864;49.238;8.092;2023-04-28T02:05:18;99121.13;;;12.48;74.15
68859;BME280;55864;49.238;8.092;2023-04-28T02:07:21;99127.84;;;12.35;74.39
68859;BME280;55864;49.238;8.092;2023-04-28T02:09:22;99127.34;;;12.31;74.24
68859;BME280;55864;49.238;8.092;2023-04-28T02:11:24;99121.91;;;12.16;74.67
68859;BME280;55864;49.238;8.092;2023-04-28T02:13:30;99124.84;;;12.13;75.59
68859;BME280;55864;49.238;8.092;2023-04-28T02:15:31;99120.88;;;12.09;76.84
68859;BME280;55864;49.238;8.092;2023-04-28T02:17:31;99121.56;;;12.19;77.14
68859;BME280;55864;49.238;8.092;2023-04-28T02:19:32;99125.19;;;12.26;77.61
68859;BME280;55864;49.238;8.092;2023-04-28T02:21:32;99130.66;;;12.33;78.03
68859;BME280;55864;49.238;8.092;2023-04-28T02:23:33;99123.25;;;12.37;77.81
68859;BME280;55864;49.238;8.092;2023-04-28T02:25:33;99134.13;;;12.42;78.74
68859;BME280;55864;49.238;8.092;2023-04-28T02:27:34;99127.03;;;12.42;78.22
68859;BME280;55864;49.238;8.092;2023-04-28T02:29:36;99119.63;;;12.46;78.47
68859;BME280;55864;49.238;8.092;2023-04-28T02:31:37;99125.41;;;12.49;78.41
68859;BME280;55864;49.238;8.092;2023-04-28T02:33:37;99129.72;;;12.50;78.52
68859;BME280;55864;49.238;8.092;2023-04-28T02:35:38;99118.34;;;12.50;78.54
68859;BME280;55864;49.238;8.092;2023-04-28T02:37:38;99112.22;;;12.49;78.04
68859;BME280;55864;49.238;8.092;2023-04-28T02:39:39;99117.66;;;12.48;78.09
68859;BME280;55864;49.238;8.092;2023-04-28T02:41:39;99105.16;;;12.50;78.41
68859;BME280;55864;49.238;8.092;2023-04-28T02:43:40;99102.69;;;12.48;78.21
68859;BME280;55864;49.238;8.092;2023-04-28T02:45:42;99099.88;;;12.50;78.50
68859;BME280;55864;49.238;8.092;2023-04-28T02:47:42;99096.94;;;12.53;78.95
68859;BME280;55864;49.238;8.092;2023-04-28T02:49:43;99091.16;;;12.49;79.00
68859;BME280;55864;49.238;8.092;2023-04-28T02:51:44;99090.34;;;12.49;79.49
68859;BME280;55864;49.238;8.092;2023-04-28T02:53:44;99093.66;;;12.51;79.28
68859;BME280;55864;49.238;8.092;2023-04-28T02:55:45;99095.44;;;12.50;79.08
68859;BME280;55864;49.238;8.092;2023-04-28T02:57:45;99098.75;;;12.52;79.54
68859;BME280;55864;49.238;8.092;2023-04-28T02:59:46;99070.91;;;12.50;78.87
68859;BME280;55864;49.238;8.092;2023-04-28T03:01:48;99069.94;;;12.51;79.81
68859;BME280;55864;49.238;8.092;2023-04-28T03:03:48;99069.78;;;12.52;79.17
68859;BME280;55864;49.238;8.092;2023-04-28T03:05:49;99064.66;;;12.51;79.26
68859;BME280;55864;49.238;8.092;2023-04-28T03:07:50;99064.00;;;12.49;79.31
68859;BME280;55864;49.238;8.092;2023-04-28T03:09:50;99065.66;;;12.50;79.27
68859;BME280;55864;49.238;8.092;2023-04-28T03:11:51;99064.66;;;12.51;79.40
68859;BME280;55864;49.238;8.092;2023-04-28T03:13:51;99060.38;;;12.50;79.83
68859;BME280;55864;49.238;8.092;2023-04-28T03:15:53;99055.75;;;12.52;80.26
68859;BME280;55864;49.238;8.092;2023-04-28T03:17:55;99053.13;;;12.52;80.02
68859;BME280;55864;49.238;8.092;2023-04-28T03:19:56;99047.88;;;12.52;79.69
68859;BME280;55864;49.238;8.092;2023-04-28T03:21:57;99060.38;;;12.50;79.35
68859;BME280;55864;49.238;8.092;2023-04-28T03:23:57;99052.28;;;12.51;79.17
68859;BME280;55864;49.238;8.092;2023-04-28T03:25:58;99055.44;;;12.47;79.17
68859;BME280;55864;49.238;8.092;2023-04-28T03:27:59;99055.09;;;12.42;79.43
68859;BME280;55864;49.238;8.092;2023-04-28T03:30:00;99059.06;;;12.38;79.11
68859;BME280;55864;49.238;8.092;2023-04-28T03:32:01;99063.66;;;12.36;79.42
68859;BME280;55864;49.238;8.092;2023-04-28T03:34:03;99057.56;;;12.35;79.63
68859;BME280;55864;49.238;8.092;2023-04-28T03:36:04;99060.03;;;12.37;79.38
68859;BME280;55864;49.238;8.092;2023-04-28T03:38:04;99066.31;;;12.36;79.55
68859;BME280;55864;49.238;8.092;2023-04-28T03:40:06;99063.81;;;12.34;79.91
68859;BME280;55864;49.238;8.092;2023-04-28T03:42:23;99057.88;;;12.32;79.66
68859;BME280;55864;49.238;8.092;2023-04-28T03:44:43;99050.50;;;12.36;79.73
68859;BME280;55864;49.238;8.092;2023-04-28T03:46:44;99041.94;;;12.34;79.67
68859;BME280;55864;49.238;8.092;2023-04-28T03:48:45;99041.09;;;12.33;79.88
68859;BME280;55864;49.238;8.092;2023-04-28T03:50:47;99040.09;;;12.34;79.87
68859;BME280;55864;49.238;8.092;2023-04-28T03:52:48;99040.94;;;12.35;79.58
68859;BME280;55864;49.238;8.092;2023-04-28T03:54:49;99042.59;;;12.36;79.84
68859;BME280;55864;49.238;8.092;2023-04-28T03:56:49;99033.69;;;12.37;79.55
68859;BME280;55864;49.238;8.092;2023-04-28T03:58:50;99031.72;;;12.39;78.89
68859;BME280;55864;49.238;8.092;2023-04-28T04:00:51;99030.91;;;12.38;77.40
68859;BME280;55864;49.238;8.092;2023-04-28T04:02:51;99026.63;;;12.37;76.58
68859;BME280;55864;49.238;8.092;2023-04-28T04:04:52;99026.47;;;12.39;75.82
68859;BME280;55864;49.238;8.092;2023-04-28T04:06:53;99026.28;;;12.40;75.43
68859;BME280;55864;49.238;8.092;2023-04-28T04:08:54;99030.59;;;12.41;75.47
68859;BME280;55864;49.238;8.092;2023-04-28T04:10:55;99027.28;;;12.39;75.26
68859;BME280;55864;49.238;8.092;2023-04-28T04:12:55;99028.44;;;12.37;75.81
68859;BME280;55864;49.238;8.092;2023-04-28T04:14:56;99031.06;;;12.37;76.66
68859;BME280;55864;49.238;8.092;2023-04-28T04:16:56;99026.81;;;12.36;77.70
68859;BME280;55864;49.238;8.092;2023-04-28T04:18:57;99020.69;;;12.35;77.58
68859;BME280;55864;49.238;8.092;2023-04-28T04:21:04;99021.66;;;12.34;77.83
68859;BME280;55864;49.238;8.092;2023-04-28T04:23:06;99015.75;;;12.32;77.94
68859;BME280;55864;49.238;8.092;2023-04-28T04:25:07;99017.41;;;12.33;78.06
68859;BME280;55864;49.238;8.092;2023-04-28T04:27:09;99029.75;;;12.32;77.96
68859;BME280;55864;49.238;8.092;2023-04-28T04:29:12;99019.38;;;12.31;77.95
68859;BME280;55864;49.238;8.092;2023-04-28T04:31:13;99025.13;;;12.35;78.14
68859;BME280;55864;49.238;8.092;2023-04-28T04:33:13;99014.94;;;12.32;78.71
68859;BME280;55864;49.238;8.092;2023-04-28T04:35:14;99017.56;;;12.32;78.57
68859;BME280;55864;49.238;8.092;2023-04-28T04:37:15;99025.31;;;12.33;78.40
68859;BME280;55864;49.238;8.092;2023-04-28T04:39:31;99028.09;;;12.32;78.26
68859;BME280;55864;49.238;8.092;2023-04-28T04:41:32;99017.56;;;12.32;78.69
68859;BME280;55864;49.238;8.092;2023-04-28T04:43:51;99016.75;;;12.31;78.65
68859;BME280;55864;49.238;8.092;2023-04-28T04:45:52;99015.75;;;12.32;78.55
68859;BME280;55864;49.238;8.092;2023-04-28T04:47:52;99017.56;;;12.32;79.02
68859;BME280;55864;49.238;8.092;2023-04-28T04:49:53;99014.09;;;12.31;79.14
68859;BME280;55864;49.238;8.092;2023-04-28T04:51:56;99015.75;;;12.32;78.92
68859;BME280;55864;49.238;8.092;2023-04-28T04:53:58;99015.59;;;12.34;79.23
68859;BME280;55864;49.238;8.092;2023-04-28T04:56:00;99021.84;;;12.32;79.73
68859;BME280;55864;49.238;8.092;2023-04-28T04:58:01;99025.78;;;12.28;79.56
68859;BME280;55864;49.238;8.092;2023-04-28T05:00:25;99028.06;;;12.07;79.43
68859;BME280;55864;49.238;8.092;2023-04-28T05:02:27;99024.94;;;11.96;79.06
68859;BME280;55864;49.238;8.092;2023-04-28T05:04:28;99022.75;;;11.83;79.51
68859;BME280;55864;49.238;8.092;2023-04-28T05:06:28;99024.06;;;11.79;79.18
68859;BME280;55864;49.238;8.092;2023-04-28T05:08:29;99027.66;;;11.70;79.93
68859;BME280;55864;49.238;8.092;2023-04-28T05:10:31;99031.22;;;11.61;80.44
68859;BME280;55864;49.238;8.092;2023-04-28T05:12:34;99029.03;;;11.57;81.00
68859;BME280;55864;49.238;8.092;2023-04-28T05:14:34;99028.03;;;11.50;82.47
68859;BME280;55864;49.238;8.092;2023-04-28T05:16:35;99025.25;;;11.51;84.04
68859;BME280;55864;49.238;8.092;2023-04-28T05:18:42;99022.31;;;11.54;84.61
68859;BME280;55864;49.238;8.092;2023-04-28T05:20:43;99027.06;;;11.59;84.74
68859;BME280;55864;49.238;8.092;2023-04-28T05:22:45;99032.50;;;11.57;85.77
68859;BME280;55864;49.238;8.092;2023-04-28T05:24:46;99029.53;;;11.52;86.41
68859;BME280;55864;49.238;8.092;2023-04-28T05:26:47;99022.66;;;11.59;86.34
68859;BME280;55864;49.238;8.092;2023-04-28T05:28:49;99017.38;;;11.59;86.55
68859;BME280;55864;49.238;8.092;2023-04-28T05:30:49;99018.53;;;11.57;87.07
68859;BME280;55864;49.238;8.092;2023-04-28T05:32:52;99010.50;;;11.58;86.99
68859;BME280;55864;49.238;8.092;2023-04-28T05:34:53;99016.38;;;11.60;87.00
68859;BME280;55864;49.238;8.092;2023-04-28T05:36:53;99019.56;;;11.64;87.43
68859;BME280;55864;49.238;8.092;2023-04-28T05:38:57;99014.16;;;11.65;87.54
68859;BME280;55864;49.238;8.092;2023-04-28T05:40:59;99018.91;;;11.70;87.33
68859;BME280;55864;49.238;8.092;2023-04-28T05:43:00;99015.31;;;11.71;87.24
68859;BME280;55864;49.238;8.092;2023-04-28T05:45:02;99022.38;;;11.70;87.45
68859;BME280;55864;49.238;8.092;2023-04-28T05:47:03;99012.53;;;11.72;87.61
68859;BME280;55864;49.238;8.092;2023-04-28T05:49:03;99018.28;;;11.76;87.42
68859;BME280;55864;49.238;8.092;2023-04-28T05:51:08;99006.78;;;11.77;87.52
68859;BME280;55864;49.238;8.092;2023-04-28T05:53:09;99011.06;;;11.78;87.83
68859;BME280;55864;49.238;8.092;2023-04-28T05:55:09;99010.88;;;11.79;88.21
68859;BME280;55864;49.238;8.092;2023-04-28T05:57:10;99003.00;;;11.79;88.43
68859;BME280;55864;49.238;8.092;2023-04-28T05:59:11;99000.88;;;11.83;88.13
68859;BME280;55864;49.238;8.092;2023-04-28T06:01:13;99007.78;;;11.84;88.92
68859;BME280;55864;49.238;8.092;2023-04-28T06:03:13;99002.34;;;11.85;89.10
68859;BME280;55864;49.238;8.092;2023-04-28T06:05:14;99011.09;;;11.86;88.89
68859;BME280;55864;49.238;8.092;2023-04-28T06:07:14;99004.16;;;11.85;89.41
68859;BME280;55864;49.238;8.092;2023-04-28T06:09:15;99003.03;;;11.87;89.66
68859;BME280;55864;49.238;8.092;2023-04-28T06:11:16;99010.91;;;11.87;89.67
68859;BME280;55864;49.238;8.092;2023-04-28T06:13:16;99015.03;;;11.90;89.82
68859;BME280;55864;49.238;8.092;2023-04-28T06:15:17;99015.66;;;11.76;89.06
68859;BME280;55864;49.238;8.092;2023-04-28T06:17:19;99013.53;;;11.71;88.74
68859;BME280;55864;49.238;8.092;2023-04-28T06:19:19;99004.97;;;11.69;89.12
68859;BME280;55864;49.238;8.092;2023-04-28T06:21:20;99006.94;;;11.67;89.27
68859;BME280;55864;49.238;8.092;2023-04-28T06:23:20;99015.59;;;11.60;89.69
68859;BME280;55864;49.238;8.092;2023-04-28T06:25:22;99005.38;;;11.49;89.75
68859;BME280;55864;49.238;8.092;2023-04-28T06:27:24;99002.38;;;11.44;89.80
68859;BME280;55864;49.238;8.092;2023-04-28T06:29:24;98992.69;;;11.44;90.79
68859;BME280;55864;49.238;8.092;2023-04-28T06:31:25;98997.94;;;11.44;92.55
68859;BME280;55864;49.238;8.092;2023-04-28T06:33:28;98999.44;;;11.47;92.93
68859;BME280;55864;49.238;8.092;2023-04-28T06:35:29;99001.53;;;11.43;92.68
68859;BME280;55864;49.238;8.092;2023-04-28T06:37:30;98998.28;;;11.49;94.20
68859;BME280;55864;49.238;8.092;2023-04-28T06:39:32;99005.38;;;11.57;94.06
68859;BME280;55864;49.238;8.092;2023-04-28T06:41:32;98988.50;;;11.67;94.70
68859;BME280;55864;49.238;8.092;2023-04-28T06:43:36;98999.03;;;11.67;95.41
68859;BME280;55864;49.238;8.092;2023-04-28T06:45:59;99004.63;;;11.72;95.08
68859;BME280;55864;49.238;8.092;2023-04-28T06:47:59;99004.28;;;11.75;94.85
68859;BME280;55864;49.238;8.092;2023-04-28T06:50:01;99022.41;;;11.78;95.21
68859;BME280;55864;49.238;8.092;2023-04-28T06:52:07;99028.19;;;11.82;94.72
68859;BME280;55864;49.238;8.092;2023-04-28T06:54:08;99027.19;;;11.83;94.74
68859;BME280;55864;49.238;8.092;2023-04-28T06:56:08;99021.63;;;11.86;94.28
68859;BME280;55864;49.238;8.092;2023-04-28T06:58:09;99004.69;;;11.88;94.21
68859;BME280;55864;49.238;8.092;2023-04-28T07:00:10;99000.53;;;11.78;94.36
68859;BME280;55864;49.238;8.092;2023-04-28T07:02:11;99006.25;;;11.65;93.37
68859;BME280;55864;49.238;8.092;2023-04-28T07:04:11;98998.50;;;11.64;92.53
68859;BME280;55864;49.238;8.092;2023-04-28T07:06:13;99005.22;;;11.58;93.01
68859;BME280;55864;49.238;8.092;2023-04-28T07:08:14;99004.41;;;11.58;92.88
68859;BME280;55864;49.238;8.092;2023-04-28T07:10:14;99012.28;;;11.58;92.98
68859;BME280;55864;49.238;8.092;2023-04-28T07:12:15;99008.50;;;11.60;93.11
68859;BME280;55864;49.238;8.092;2023-04-28T07:14:15;99010.81;;;11.63;93.87
68859;BME280;55864;49.238;8.092;2023-04-28T07:16:16;99015.78;;;11.66;94.52
68859;BME280;55864;49.238;8.092;2023-04-28T07:18:17;99015.78;;;11.66;94.37
68859;BME280;55864;49.238;8.092;2023-04-28T07:20:17;99021.06;;;11.66;94.47
68859;BME280;55864;49.238;8.092;2023-04-28T07:22:19;99025.34;;;11.67;94.72
68859;BME280;55864;49.238;8.092;2023-04-28T07:24:20;99029.31;;;11.71;94.96
68859;BME280;55864;49.238;8.092;2023-04-28T07:26:21;99034.41;;;11.73;95.46
68859;BME280;55864;49.238;8.092;2023-04-28T07:28:21;99032.94;;;11.78;95.39
68859;BME280;55864;49.238;8.092;2023-04-28T07:30:22;99037.38;;;11.78;95.74
68859;BME280;55864;49.238;8.092;2023-04-28T07:32:22;99040.16;;;11.76;96.10
68859;BME280;55864;49.238;8.092;2023-04-28T07:34:23;99032.44;;;11.75;96.94
68859;BME280;55864;49.238;8.092;2023-04-28T07:36:23;99039.16;;;11.77;97.02
68859;BME280;55864;49.238;8.092;2023-04-28T07:38:25;99036.41;;;11.79;97.42
68859;BME280;55864;49.238;8.092;2023-04-28T07:40:26;99041.16;;;11.83;97.18
68859;BME280;55864;49.238;8.092;2023-04-28T07:42:27;99042.50;;;11.87;97.39
68859;BME280;55864;49.238;8.092;2023-04-28T07:44:27;99035.59;;;11.86;97.41
68859;BME280;55864;49.238;8.092;2023-04-28T07:46:28;99037.25;;;11.87;97.06
68859;BME280;55864;49.238;8.092;2023-04-28T07:48:28;99038.56;;;11.91;97.15
68859;BME280;55864;49.238;8.092;2023-04-28T07:50:29;99033.63;;;11.96;97.23
68859;BME280;55864;49.238;8.092;2023-04-28T07:52:29;99036.94;;;12.06;98.00
68859;BME280;55864;49.238;8.092;2023-04-28T07:54:31;99036.97;;;12.14;99.25
68859;BME280;55864;49.238;8.092;2023-04-28T07:56:32;99041.59;;;12.20;99.92
68859;BME280;55864;49.238;8.092;2023-04-28T07:58:32;99036.00;;;12.23;99.92
68859;BME280;55864;49.238;8.092;2023-04-28T08:00:33;99028.59;;;12.27;100.00
68859;BME280;55864;49.238;8.092;2023-04-28T08:02:33;99032.72;;;12.29;100.00
68859;BME280;55864;49.238;8.092;2023-04-28T08:04:34;99035.00;;;12.32;100.00
68859;BME280;55864;49.238;8.092;2023-04-28T08:06:35;99033.03;;;12.35;99.90
68859;BME280;55864;49.238;8.092;2023-04-28T08:08:35;99032.72;;;12.38;100.00
68859;BME280;55864;49.238;8.092;2023-04-28T08:10:37;99035.19;;;12.39;100.00
68859;BME280;55864;49.238;8.092;2023-04-28T08:12:38;99035.84;;;12.41;100.00
68859;BME280;55864;49.238;8.092;2023-04-28T08:14:38;99027.94;;;12.41;100.00
68859;BME280;55864;49.238;8.092;2023-04-28T08:16:39;99023.34;;;12.43;100.00
68859;BME280;55864;49.238;8.092;2023-04-28T08:18:39;99022.50;;;12.43;100.00
68859;BME280;55864;49.238;8.092;2023-04-28T08:20:40;99022.50;;;12.43;100.00
68859;BME280;55864;49.238;8.092;2023-04-28T08:22:41;99021.50;;;12.44;100.00
68859;BME280;55864;49.238;8.092;2023-04-28T08:24:41;99021.38;;;12.45;100.00
68859;BME280;55864;49.238;8.092;2023-04-28T08:26:43;99030.72;;;12.48;100.00
68859;BME280;55864;49.238;8.092;2023-04-28T08:28:44;99028.59;;;12.51;100.00
68859;BME280;55864;49.238;8.092;2023-04-28T08:30:44;99025.63;;;12.54;100.00
68859;BME280;55864;49.238;8.092;2023-04-28T08:32:45;99019.38;;;12.55;100.00
68859;BME280;55864;49.238;8.092;2023-04-28T08:34:45;99013.13;;;12.56;100.00
68859;BME280;55864;49.238;8.092;2023-04-28T08:36:46;99012.78;;;12.59;100.00
68859;BME280;55864;49.238;8.092;2023-04-28T08:38:46;99009.19;;;12.60;100.00
68859;BME280;55864;49.238;8.092;2023-04-28T08:40:47;99009.50;;;12.65;100.00
68859;BME280;55864;49.238;8.092;2023-04-28T08:42:49;99008.19;;;12.69;100.00
68859;BME280;55864;49.238;8.092;2023-04-28T08:44:50;99010.28;;;12.74;100.00
68859;BME280;55864;49.238;8.092;2023-04-28T08:46:55;99013.75;;;12.74;100.00
68859;BME280;55864;49.238;8.092;2023-04-28T08:48:58;99015.06;;;12.78;100.00
68859;BME280;55864;49.238;8.092;2023-04-28T08:50:59;99020.19;;;12.80;100.00
68859;BME280;55864;49.238;8.092;2023-04-28T08:53:03;99023.47;;;12.82;100.00
68859;BME280;55864;49.238;8.092;2023-04-28T08:55:06;99022.50;;;12.83;100.00
68859;BME280;55864;49.238;8.092;2023-04-28T08:57:07;99030.06;;;12.86;100.00
68859;BME280;55864;49.238;8.092;2023-04-28T08:59:10;99025.94;;;12.91;100.00
68859;BME280;55864;49.238;8.092;2023-04-28T09:01:11;99025.25;;;12.97;100.00
68859;BME280;55864;49.238;8.092;2023-04-28T09:03:12;99015.22;;;13.09;100.00
68859;BME280;55864;49.238;8.092;2023-04-28T09:05:13;99014.22;;;13.57;100.00
68859;BME280;55864;49.238;8.092;2023-04-28T09:07:13;99017.69;;;13.88;100.00
68859;BME280;55864;49.238;8.092;2023-04-28T09:09:18;99015.72;;;14.12;98.44
68859;BME280;55864;49.238;8.092;2023-04-28T09:11:19;99013.00;;;13.98;98.39
68859;BME280;55864;49.238;8.092;2023-04-28T09:13:24;99010.59;;;13.88;100.00
68859;BME280;55864;49.238;8.092;2023-04-28T09:15:28;99011.09;;;13.84;100.00
68859;BME280;55864;49.238;8.092;2023-04-28T09:17:28;99008.63;;;13.82;100.00
68859;BME280;55864;49.238;8.092;2023-04-28T09:19:32;99004.38;;;13.81;100.00
68859;BME280;55864;49.238;8.092;2023-04-28T09:21:45;99009.16;;;13.78;100.00
68859;BME280;55864;49.238;8.092;2023-04-28T09:23:47;99016.56;;;13.82;100.00
68859;BME280;55864;49.238;8.092;2023-04-28T09:25:55;99012.53;;;13.94;100.00
68859;BME280;55864;49.238;8.092;2023-04-28T09:27:55;99013.47;;;14.01;100.00
68859;BME280;55864;49.238;8.092;2023-04-28T09:29:56;99010.66;;;14.03;100.00
68859;BME280;55864;49.238;8.092;2023-04-28T09:32:16;99013.44;;;14.09;100.00
68859;BME280;55864;49.238;8.092;2023-04-28T09:34:17;99016.72;;;14.11;100.00
68859;BME280;55864;49.238;8.092;2023-04-28T09:36:25;99015.66;;;14.21;100.00
68859;BME280;55864;49.238;8.092;2023-04-28T09:38:26;99012.66;;;14.24;100.00
68859;BME280;55864;49.238;8.092;2023-04-28T09:40:27;99017.09;;;14.31;100.00
68859;BME280;55864;49.238;8.092;2023-04-28T09:42:31;99010.59;;;14.42;100.00
68859;BME280;55864;49.238;8.092;2023-04-28T09:44:32;99016.66;;;14.42;100.00
68859;BME280;55864;49.238;8.092;2023-04-28T09:46:33;99020.47;;;14.48;100.00
68859;BME280;55864;49.238;8.092;2023-04-28T09:48:35;99028.66;;;14.53;100.00
68859;BME280;55864;49.238;8.092;2023-04-28T09:50:39;99020.91;;;14.51;100.00
68859;BME280;55864;49.238;8.092;2023-04-28T09:52:40;99019.38;;;14.57;100.00
68859;BME280;55864;49.238;8.092;2023-04-28T09:54:40;99022.03;;;14.57;100.00
68859;BME280;55864;49.238;8.092;2023-04-28T09:56:42;99028.59;;;14.61;100.00
68859;BME280;55864;49.238;8.092;2023-04-28T09:58:46;99026.06;;;14.67;100.00
68859;BME280;55864;49.238;8.092;2023-04-28T10:00:51;99031.16;;;14.69;100.00
68859;BME280;55864;49.238;8.092;2023-04-28T10:02:52;99046.22;;;14.68;100.00
68859;BME280;55864;49.238;8.092;2023-04-28T10:04:54;99044.75;;;14.66;100.00
68859;BME280;55864;49.238;8.092;2023-04-28T10:06:55;99048.38;;;14.65;100.00
68859;BME280;55864;49.238;8.092;2023-04-28T10:08:57;99047.91;;;14.61;100.00
68859;BME280;55864;49.238;8.092;2023-04-28T10:10:58;99055.69;;;14.63;100.00
68859;BME280;55864;49.238;8.092;2023-04-28T10:12:59;99052.84;;;14.64;100.00
68859;BME280;55864;49.238;8.092;2023-04-28T10:15:00;99049.75;;;14.61;100.00
68859;BME280;55864;49.238;8.092;2023-04-28T10:17:02;99064.97;;;14.59;100.00
68859;BME280;55864;49.238;8.092;2023-04-28T10:19:04;99067.94;;;14.56;100.00
68859;BME280;55864;49.238;8.092;2023-04-28T10:21:06;99060.97;;;14.63;100.00
68859;BME280;55864;49.238;8.092;2023-04-28T10:25:47;99059.16;;;15.15;97.93
68859;BME280;55864;49.238;8.092;2023-04-28T10:27:48;99050.97;;;15.10;97.02
68859;BME280;55864;49.238;8.092;2023-04-28T10:29:49;99043.66;;;15.12;95.77
68859;BME280;55864;49.238;8.092;2023-04-28T10:32:18;99041.44;;;15.01;97.02
68859;BME280;55864;49.238;8.092;2023-04-28T10:34:22;99032.59;;;14.94;98.48
68859;BME280;55864;49.238;8.092;2023-04-28T10:36:48;99032.97;;;14.91;100.00
68859;BME280;55864;49.238;8.092;2023-04-28T10:39:07;99029.03;;;14.87;100.00
68859;BME280;55864;49.238;8.092;2023-04-28T10:41:34;99021.09;;;14.87;100.00
68859;BME280;55864;49.238;8.092;2023-04-28T10:43:36;99018.06;;;14.90;100.00
68859;BME280;55864;49.238;8.092;2023-04-28T10:46:02;99019.09;;;14.89;100.00